Flight Track Log - Related Links

Times and Time Zones

All times are in EDT time to prevent confusion due to time zone crossing. See the N67511 flight status page for this flight to view local times or setup timezone preferences in your user account.

Time Position Orientation Groundspeed Altitude Reporting Facility
EDT Latitude Longitude Course Direction KTS MPH feet Rate Location/Type
Mon 03:26:37 PM 42.1333 -87.9167 10° North 146 168 2,500  Level Chicago TRACON
Mon 03:27:43 PM 42.1667 -87.8833 37° Northeast 157 181 3,700 1,070 Climbing Chicago TRACON
Mon 03:28:46 PM 42.2011 -87.8417 42° Northeast 156 180 4,800 1,056 Climbing Chicago Center
Mon 03:29:48 PM 42.2539 -87.8328 North 188 216 5,900 1,366 Climbing Chicago Center
Mon 03:30:49 PM 42.3186 -87.8381 357° North 196 226 7,600 1,463 Climbing Chicago Center
Mon 03:31:00 PM 42.2710 -87.8281 10° North  Level FlightAware Approximate
Mon 03:31:51 PM 42.3642 -87.8425 356° North 187 215 8,900  Level Chicago Center
Mon 03:32:00 PM 42.3063 -87.8193 10° North  Level FlightAware Approximate
Mon 03:32:53 PM 42.4256 -87.8364 North 188 216 10,700  Level Chicago Center
Mon 03:33:54 PM 42.4767 -87.8364 360° North 184 212 12,200 1,317 Climbing Chicago Center
Mon 03:34:56 PM 42.5275 -87.8411 356° North 182 209 13,400 968 Climbing Chicago Center
Mon 03:35:58 PM 42.5839 -87.8264 11° North 202 232 14,200 780 Climbing Chicago Center
Mon 03:36:59 PM 42.6422 -87.8100 12° North 213 245 15,000 732 Climbing Chicago Center
Mon 03:38:01 PM 42.7014 -87.7989 North 214 246 15,700 774 Climbing Chicago Center
Mon 03:39:03 PM 42.7586 -87.7503 32° Northeast 223 257 16,600 829 Climbing Chicago Center
Mon 03:40:04 PM 42.8003 -87.6889 47° Northeast 218 251 17,400 634 Climbing Chicago Center
Mon 03:41:06 PM 42.8300 -87.6153 61° Northeast 222 255 17,900 581 Climbing Chicago Center
Mon 03:42:08 PM 42.8556 -87.5408 65° Northeast 219 252 18,600 537 Climbing Chicago Center
Mon 03:43:09 PM 42.8761 -87.4597 71° East 225 259 19,000 195 Climbing Chicago Center
Mon 03:44:11 PM 42.8914 -87.3750 76° East 235 270 19,000  Level Chicago Center
Mon 03:45:13 PM 42.9008 -87.2825 82° East 246 283 19,000  Level Chicago Center
Mon 03:46:15 PM 42.9083 -87.1728 85° East 244 281 19,000  Level Chicago Center
Mon 03:47:16 PM 42.8956 -87.0844 101° East 239 275 19,000  Level Chicago Center
Mon 03:48:18 PM 42.8886 -86.9928 96° East 243 280 19,000  Level Chicago Center
Mon 03:49:20 PM 42.8833 -86.9006 94° East 246 283 19,000  Level Chicago Center
Mon 03:50:22 PM 42.8772 -86.8081 95° East 246 283 19,000  Level Chicago Center
Mon 03:51:23 PM 42.8722 -86.7186 94° East 241 277 19,000  Level Chicago Center
Mon 03:52:25 PM 42.8664 -86.6264 95° East 243 280 19,000  Level Chicago Center
Mon 03:53:27 PM 42.8583 -86.5181 96° East 243 280 19,000  Level Chicago Center
Mon 03:54:29 PM 42.8531 -86.4275 95° East 241 277 19,000  Level Chicago Center
Mon 03:55:31 PM 42.8464 -86.3386 96° East 238 274 19,000  Level Chicago Center
Mon 03:56:32 PM 42.8397 -86.2497 96° East 239 275 19,000  Level Chicago Center
Mon 03:57:34 PM 42.8333 -86.1614 96° East 237 273 19,000  Level Chicago Center
Mon 03:58:36 PM 42.8269 -86.0544 95° East 238 274 19,000  Level Chicago Center
Mon 03:59:38 PM 42.8189 -85.9656 97° East 239 275 19,000  Level Chicago Center
Mon 04:00:40 PM 42.8131 -85.8769 95° East 238 274 19,000  Level Chicago Center
Mon 04:01:42 PM 42.8069 -85.7883 95° East 237 273 19,000  Level Chicago Center
Mon 04:02:44 PM 42.8006 -85.6997 96° East 237 273 19,000  Level Chicago Center
Mon 04:03:45 PM 42.7933 -85.6089 96° East 241 277 19,000  Level Chicago Center
Mon 04:04:47 PM 42.7853 -85.5033 96° East 237 273 19,000  Level Chicago Center
Mon 04:05:49 PM 42.7778 -85.4147 97° East 236 272 19,000  Level Chicago Center
Mon 04:06:51 PM 42.7708 -85.3253 96° East 237 273 19,000  Level Chicago Center
Mon 04:07:53 PM 42.7633 -85.2369 97° East 237 273 19,000  Level Chicago Center
Mon 04:08:55 PM 42.7553 -85.1500 97° East 234 269 19,000  Level Chicago Center
Mon 04:09:57 PM 42.7483 -85.0608 96° East 236 272 19,000  Level Chicago Center
Mon 04:10:59 PM 42.7397 -84.9550 96° East 235 270 19,000 -194 Level Chicago Center
Mon 04:12:01 PM 42.7308 -84.8681 98° East 233 268 18,600 -532 Descending Chicago Center
Mon 04:13:03 PM 42.7225 -84.7728 97° East 249 287 17,900 -871 Descending Chicago Center
Mon 04:14:05 PM 42.7150 -84.6742 96° East 260 299 16,800 -1,065 Descending Chicago Center
Mon 04:15:07 PM 42.7167 -84.5772 89° East 257 296 15,700 -1,174 Descending Chicago Center
Mon 04:15:37 PM 42.7161 -84.5117 91° East 258 297 15,000 -1,320 Descending FAA TRACON SMA TRACON (SMA)
Mon 04:15:57 PM 42.7153 -84.4819 92° East 257 296 14,600 -1,050 Descending FAA TRACON SMA TRACON (SMA)
Mon 04:16:17 PM 42.7144 -84.4531 92° East 254 292 14,300 -1,200 Descending FAA TRACON SMA TRACON (SMA)
Mon 04:16:37 PM 42.7142 -84.4169 91° East 250 288 13,800 -1,200 Descending FAA TRACON SMA TRACON (SMA)
Mon 04:16:57 PM 42.7139 -84.3889 91° East 248 285 13,500 -1,050 Descending FAA TRACON SMA TRACON (SMA)
Mon 04:17:17 PM 42.7131 -84.3614 92° East 242 278 13,100 -900 Descending FAA TRACON SMA TRACON (SMA)
Mon 04:17:37 PM 42.7122 -84.3331 92° East 237 273 12,900 -1,050 Descending FAA TRACON SMA TRACON (SMA)
Mon 04:17:57 PM 42.7122 -84.2986 90° East 241 277 12,400 -1,385 Descending FAA TRACON SMA TRACON (SMA)
Mon 04:18:16 PM 42.7117 -84.2706 92° East 241 277 12,000 -1,231 Descending FAA TRACON SMA TRACON (SMA)
Mon 04:18:36 PM 42.7114 -84.2422 91° East 241 277 11,600 -1,350 Descending FAA TRACON SMA TRACON (SMA)
Mon 04:18:56 PM 42.7108 -84.2072 91° East 239 275 11,100 -1,350 Descending FAA TRACON SMA TRACON (SMA)
Mon 04:19:16 PM 42.7103 -84.1803 92° East 240 276 10,700 -1,200 Descending FAA TRACON SMA TRACON (SMA)
Mon 04:19:36 PM 42.7103 -84.1522 90° East 238 274 10,300 -1,350 Descending FAA TRACON SMA TRACON (SMA)
Mon 04:19:56 PM 42.7097 -84.1189 91° East 234 269 9,800 -1,050 Descending FAA TRACON SMA TRACON (SMA)
Mon 04:20:16 PM 42.7092 -84.0931 92° East 229 264 9,600 -585 Descending FAA TRACON SMA TRACON (SMA)
Mon 04:20:37 PM 42.7083 -84.0628 92° East 212 244 9,400 -585 Descending FAA TRACON SMA TRACON (SMA)
Mon 04:20:57 PM 42.7081 -84.0394 91° East 208 239 9,200 -300 Descending FAA TRACON SMA TRACON (SMA)
Mon 04:21:17 PM 42.7078 -84.0231 91° East 202 232 9,200 -400 Level FAA TRACON SMA TRACON (SMA)
Mon 04:21:57 PM 42.6828 -83.9764 126° Southeast 207 238 8,800 -600 Descending FAA TRACON SMA TRACON (SMA)
Mon 04:22:17 PM 42.6706 -83.9586 133° Southeast 209 241 8,600 -750 Descending FAA TRACON SMA TRACON (SMA)
Mon 04:22:37 PM 42.6550 -83.9367 134° Southeast 211 243 8,300 -750 Descending FAA TRACON SMA TRACON (SMA)
Mon 04:22:57 PM 42.6417 -83.9192 136° Southeast 213 245 8,100 -600 Descending FAA TRACON SMA TRACON (SMA)
Mon 04:23:17 PM 42.6286 -83.9011 134° Southeast 215 247 7,900 -900 Descending FAA TRACON SMA TRACON (SMA)
Mon 04:23:37 PM 42.6122 -83.8783 134° Southeast 218 251 7,500 -900 Descending FAA TRACON SMA TRACON (SMA)
Mon 04:23:57 PM 42.5994 -83.8600 133° Southeast 216 249 7,300 -750 Descending FAA TRACON SMA TRACON (SMA)
Mon 04:24:17 PM 42.5872 -83.8419 133° Southeast 214 246 7,000 -1,050 Descending FAA TRACON SMA TRACON (SMA)
Mon 04:24:37 PM 42.5722 -83.8194 132° Southeast 212 244 6,600 -1,231 Descending FAA TRACON SMA TRACON (SMA)
Mon 04:24:56 PM 42.5583 -83.8050 143° Southeast 208 239 6,200 -1,119 Descending FAA TRACON SMA TRACON (SMA)
Mon 04:25:36 PM 42.5236 -83.7797 152° Southeast 206 237 5,500 -1,100 Descending FAA TRACON SMA TRACON (SMA)
Mon 04:25:56 PM 42.5083 -83.7681 151° Southeast 203 234 5,100 -1,200 Descending FAA TRACON SMA TRACON (SMA)
Mon 04:26:16 PM 42.4933 -83.7567 151° Southeast 200 230 4,700 -1,350 Descending FAA TRACON SMA TRACON (SMA)
Mon 04:26:36 PM 42.4753 -83.7439 152° Southeast 196 226 4,200 -1,385 Descending FAA TRACON SMA TRACON (SMA)
Mon 04:26:55 PM 42.4600 -83.7364 160° South 187 215 3,800 -878 Descending FAA TRACON SMA TRACON (SMA)
Mon 04:27:17 PM 42.4456 -83.7292 160° South 181 208 3,600 -649 Descending FAA TRACON SMA TRACON (SMA)
Mon 04:27:32 PM 42.4297 -83.7228 163° South 176 203 3,400 -395 Descending Cleveland Center
Mon 04:28:33 PM 42.3886 -83.7008 158° South 153 176 3,100 -148 Descending Cleveland Center
Mon 04:29:34 PM 42.3519 -83.6739 151° Southeast 151 174 3,100  Level Cleveland Center
Mon 04:30:35 PM 42.3175 -83.6386 143° Southeast 158 182 3,100 -73 Level Cleveland Center
Mon 04:30:56 PM 42.3081 -83.6231 129° Southeast 146 168 3,000 -439 Descending FAA TRACON SMA TRACON (SMA)
Mon 04:31:16 PM 42.2997 -83.6117 135° Southeast 141 162 2,800 -900 Descending FAA TRACON SMA TRACON (SMA)
Mon 04:31:36 PM 42.2892 -83.5981 136° Southeast 136 157 2,400 -1,200 Descending FAA TRACON SMA TRACON (SMA)
Mon 04:31:56 PM 42.2814 -83.5878 136° Southeast 130 150 2,000 -900 Descending FAA TRACON SMA TRACON (SMA)
Mon 04:32:16 PM 42.2733 -83.5786 140° Southeast 122 140 1,800 -600 Descending FAA TRACON SMA TRACON (SMA)
Mon 04:32:36 PM 42.2642 -83.5669 137° Southeast 119 137 1,600 -600 Descending FAA TRACON SMA TRACON (SMA)
Mon 04:32:56 PM 42.2586 -83.5589 133° Southeast 87 100 1,400 -600 Descending FAA TRACON SMA TRACON (SMA)
Mon 04:33:16 PM 42.2517 -83.5503 137° Southeast 104 120 1,200 -732 Descending FAA TRACON SMA TRACON (SMA)
Mon 04:33:37 PM 42.2469 -83.5442 136° Southeast 103 119 900 -300 Descending FAA TRACON SMA TRACON (SMA)
Mon 04:34:16 PM 42.2469 -83.5442 29° Northeast 103 119 900  Level FAA TRACON SMA TRACON (SMA)
Mon 04:36:00 PM 42.2393 -83.5310 90° East  Level Estimated

Login

Don't have an account? Register now (free) for customized features, flight alerts, and more!